createdAt,value
2018-02-13T00:01:30.509Z,59.30
2018-02-13T00:03:57.959Z,59.30
2018-02-13T00:06:25.452Z,59.50
2018-02-13T00:08:52.897Z,59.40
2018-02-13T00:11:20.414Z,59.40
2018-02-13T00:13:47.867Z,59.30
2018-02-13T00:16:15.325Z,59.30
2018-02-13T00:18:43.096Z,59.40
2018-02-13T00:21:10.851Z,59.40
2018-02-13T00:23:38.307Z,59.30
2018-02-13T00:26:06.232Z,59.30
2018-02-13T00:28:33.712Z,59.20
2018-02-13T00:31:01.166Z,59.30
2018-02-13T00:33:28.682Z,59.30
2018-02-13T00:35:56.166Z,59.30
2018-02-13T00:38:23.651Z,59.50
2018-02-13T00:40:51.141Z,59.60
2018-02-13T00:43:18.869Z,59.70
2018-02-13T00:45:46.333Z,59.70
2018-02-13T00:48:14.098Z,59.80
2018-02-13T00:50:41.565Z,60.00
2018-02-13T00:53:09.201Z,59.90
2018-02-13T00:55:36.779Z,59.80
2018-02-13T00:58:04.242Z,59.80
2018-02-13T01:00:31.697Z,60.00
2018-02-13T01:02:59.449Z,60.20
2018-02-13T01:05:27.213Z,60.30
2018-02-13T01:07:54.773Z,60.30
2018-02-13T01:10:22.225Z,60.20
2018-02-13T01:12:49.889Z,60.40
2018-02-13T01:15:17.358Z,60.50
2018-02-13T01:17:44.813Z,60.50
2018-02-13T01:20:12.457Z,60.20
2018-02-13T01:22:39.901Z,60.10
2018-02-13T01:25:07.493Z,60.00
2018-02-13T01:27:35.098Z,60.20
2018-02-13T01:30:02.566Z,60.10
2018-02-13T01:32:30.098Z,60.00
2018-02-13T01:34:57.565Z,60.20
2018-02-13T01:37:25.075Z,60.30
2018-02-13T01:39:52.541Z,60.20
2018-02-13T01:42:20.184Z,60.20
2018-02-13T01:44:47.690Z,60.30
2018-02-13T01:47:15.139Z,60.40
2018-02-13T01:49:42.601Z,60.40
2018-02-13T01:52:10.058Z,60.30
2018-02-13T01:54:37.572Z,60.30
2018-02-13T01:57:05.021Z,60.20
2018-02-13T01:59:32.465Z,60.30
2018-02-13T02:01:59.921Z,60.50
2018-02-13T02:04:27.589Z,60.40
2018-02-13T02:06:55.046Z,60.10
2018-02-13T02:09:22.497Z,60.30
2018-02-13T02:11:50.078Z,60.20
2018-02-13T02:14:17.849Z,60.30
2018-02-13T02:16:45.307Z,60.50
2018-02-13T02:19:12.865Z,60.50
2018-02-13T02:21:40.529Z,60.60
2018-02-13T02:24:08.190Z,60.40
2018-02-13T02:26:35.653Z,60.50
2018-02-13T02:29:03.105Z,60.40
2018-02-13T02:31:30.582Z,60.50
2018-02-13T02:33:58.042Z,60.60
2018-02-13T02:36:25.515Z,60.50
2018-02-13T02:38:52.976Z,60.50
2018-02-13T02:41:20.443Z,60.50
2018-02-13T02:43:47.899Z,60.50
2018-02-13T02:46:15.394Z,60.70
2018-02-13T02:48:43.152Z,61.50
2018-02-13T02:51:10.909Z,60.90
2018-02-13T02:53:38.386Z,60.70
2018-02-13T02:56:06.303Z,60.90
2018-02-13T02:58:33.779Z,60.80
2018-02-13T03:01:01.231Z,60.90
2018-02-13T03:03:28.691Z,61.00
2018-02-13T03:05:56.173Z,61.00
2018-02-13T03:08:23.721Z,61.10
2018-02-13T03:10:51.211Z,61.00
2018-02-13T03:13:18.945Z,61.20
2018-02-13T03:15:46.430Z,61.20
2018-02-13T03:18:14.172Z,61.20
2018-02-13T03:20:41.809Z,61.40
2018-02-13T03:23:09.273Z,61.30
2018-02-13T03:25:36.786Z,61.30
2018-02-13T03:28:04.304Z,61.30
2018-02-13T03:30:33.278Z,60.90
2018-02-13T03:33:00.753Z,60.90
2018-02-13T03:35:28.332Z,60.90
2018-02-13T03:37:56.585Z,61.50
2018-02-13T03:40:24.234Z,60.80
2018-02-13T03:42:51.690Z,61.00
2018-02-13T03:45:19.146Z,61.30
2018-02-13T03:47:46.613Z,61.60
2018-02-13T03:50:14.077Z,61.40
2018-02-13T03:52:41.533Z,61.30
2018-02-13T03:55:09.004Z,61.30
2018-02-13T03:57:36.458Z,61.40
2018-02-13T04:00:03.926Z,61.40
2018-02-13T04:02:31.453Z,61.40
2018-02-13T04:04:58.912Z,62.30
2018-02-13T04:07:26.357Z,61.50
2018-02-13T04:09:54.033Z,61.30
2018-02-13T04:12:21.593Z,61.20
2018-02-13T04:14:49.357Z,61.40
2018-02-13T04:17:17.122Z,61.70
2018-02-13T04:19:44.905Z,61.70
2018-02-13T04:22:12.573Z,61.60
2018-02-13T04:24:40.102Z,61.50
2018-02-13T04:27:07.602Z,61.40
2018-02-13T04:29:35.109Z,61.10
2018-02-13T04:32:02.565Z,61.60
2018-02-13T04:34:30.245Z,61.90
2018-02-13T04:36:58.006Z,61.80
2018-02-13T04:39:25.553Z,62.00
2018-02-13T04:41:53.217Z,62.10
2018-02-13T04:44:20.985Z,61.90
2018-02-13T04:46:48.440Z,61.70
2018-02-13T04:49:16.204Z,61.70
2018-02-13T04:51:43.790Z,61.80
2018-02-13T04:54:12.007Z,61.60
2018-02-13T04:56:39.491Z,61.50
2018-02-13T04:59:07.457Z,61.50
2018-02-13T05:01:34.877Z,61.50
2018-02-13T05:04:03.402Z,61.70
2018-02-13T05:06:31.161Z,61.80
2018-02-13T05:08:58.814Z,61.90
2018-02-13T05:11:26.264Z,62.10
2018-02-13T05:13:53.769Z,62.10
2018-02-13T05:16:21.298Z,62.10
2018-02-13T05:18:49.062Z,61.80
2018-02-13T05:21:16.510Z,61.60
2018-02-13T05:23:43.973Z,61.70
2018-02-13T05:26:11.425Z,61.80
2018-02-13T05:28:38.939Z,61.80
2018-02-13T05:31:06.346Z,62.10
2018-02-13T05:33:34.111Z,62.00
2018-02-13T05:36:01.733Z,61.80
2018-02-13T05:38:29.271Z,61.80
2018-02-13T05:40:56.722Z,61.80
2018-02-13T05:43:24.252Z,61.80
2018-02-13T05:45:51.908Z,61.90
2018-02-13T05:48:20.257Z,61.80
2018-02-13T05:50:47.749Z,61.80
2018-02-13T05:53:15.199Z,61.80
2018-02-13T05:55:42.669Z,61.80
2018-02-13T05:58:10.121Z,61.90
2018-02-13T06:00:37.718Z,61.90
2018-02-13T06:03:05.300Z,62.60
2018-02-13T06:05:32.766Z,61.80
2018-02-13T06:08:00.214Z,61.80
2018-02-13T06:10:27.711Z,61.70
2018-02-13T06:12:55.254Z,61.70
2018-02-13T06:15:23.026Z,61.80
2018-02-13T06:17:50.834Z,61.90
2018-02-13T06:20:18.438Z,62.10
2018-02-13T06:22:45.889Z,62.60
2018-02-13T06:25:13.373Z,62.50
2018-02-13T06:27:40.829Z,62.40
2018-02-13T06:30:08.386Z,62.50
2018-02-13T06:32:35.965Z,62.40
2018-02-13T06:35:04.194Z,62.20
2018-02-13T06:37:31.858Z,62.20
2018-02-13T06:39:59.444Z,62.00
2018-02-13T06:42:26.898Z,61.90
2018-02-13T06:44:54.662Z,61.70
2018-02-13T06:47:22.109Z,61.90
2018-02-13T06:49:49.876Z,62.00
2018-02-13T06:52:17.338Z,61.80
2018-02-13T06:54:45.098Z,61.90
2018-02-13T06:57:12.847Z,61.90
2018-02-13T06:59:40.485Z,61.60
2018-02-13T07:02:08.073Z,61.50
2018-02-13T07:04:35.526Z,61.60
2018-02-13T07:07:02.998Z,61.50
2018-02-13T07:09:30.515Z,61.30
2018-02-13T07:11:58.240Z,61.30
2018-02-13T07:14:25.878Z,61.50
2018-02-13T07:16:53.392Z,61.40
2018-02-13T07:19:20.848Z,61.40
2018-02-13T07:21:48.356Z,61.30
2018-02-13T07:24:15.813Z,61.20
2018-02-13T07:26:43.463Z,61.20
2018-02-13T07:29:10.911Z,61.00
2018-02-13T07:31:38.519Z,60.90
2018-02-13T07:34:06.247Z,60.80
2018-02-13T07:36:33.838Z,60.60
2018-02-13T07:39:01.290Z,60.40
2018-02-13T07:41:29.566Z,60.30
2018-02-13T07:43:57.021Z,60.20
2018-02-13T07:46:25.365Z,60.10
2018-02-13T07:48:52.838Z,60.10
2018-02-13T07:51:20.300Z,59.90
2018-02-13T07:53:47.798Z,60.10
2018-02-13T07:56:15.406Z,60.00
2018-02-13T07:58:42.876Z,60.00
2018-02-13T08:01:10.366Z,59.90
2018-02-13T08:03:37.869Z,59.80
2018-02-13T08:06:05.629Z,59.70
2018-02-13T08:08:33.094Z,59.60
2018-02-13T08:11:00.858Z,59.50
2018-02-13T08:13:28.498Z,59.30
2018-02-13T08:15:55.998Z,59.50
2018-02-13T08:18:23.459Z,59.50
2018-02-13T08:20:50.921Z,59.50
2018-02-13T08:23:18.391Z,59.30
2018-02-13T08:25:45.858Z,59.10
2018-02-13T08:28:13.316Z,59.10
2018-02-13T08:30:40.821Z,59.00
2018-02-13T08:33:08.486Z,58.80
2018-02-13T08:35:35.949Z,58.40
2018-02-13T08:38:03.486Z,58.20
2018-02-13T08:40:30.961Z,58.10
2018-02-13T08:42:58.428Z,57.90
2018-02-13T08:45:25.910Z,58.00
2018-02-13T08:47:53.618Z,57.70
2018-02-13T08:50:21.125Z,57.30
2018-02-13T08:52:48.870Z,57.30
2018-02-13T08:55:16.607Z,57.40
2018-02-13T08:57:44.082Z,57.10
2018-02-13T09:00:11.539Z,56.80
2018-02-13T09:02:38.989Z,56.40
2018-02-13T09:05:06.446Z,56.60
2018-02-13T09:07:33.889Z,56.30
2018-02-13T09:10:01.381Z,56.30
2018-02-13T09:15:03.791Z,55.40
2018-02-13T09:17:31.265Z,55.40
2018-02-13T09:19:58.864Z,55.10
2018-02-13T09:22:26.475Z,55.00
2018-02-13T09:24:54.010Z,54.70
2018-02-13T09:27:21.477Z,54.50
2018-02-13T09:29:48.993Z,54.30
2018-02-13T09:32:16.650Z,54.20
2018-02-13T09:34:44.121Z,53.90
2018-02-13T09:37:11.683Z,53.80
2018-02-13T09:39:39.291Z,53.70
2018-02-13T09:42:06.794Z,53.60
2018-02-13T09:44:34.344Z,53.50
2018-02-13T09:47:01.793Z,53.20
2018-02-13T09:49:29.320Z,53.20
2018-02-13T09:51:56.779Z,52.90
2018-02-13T09:54:24.452Z,53.00
2018-02-13T09:56:51.931Z,53.10
2018-02-13T09:59:19.383Z,53.00
2018-02-13T10:01:46.849Z,52.90
2018-02-13T10:04:14.307Z,52.70
2018-02-13T10:06:41.760Z,52.60
2018-02-13T10:09:09.223Z,52.70
2018-02-13T10:11:36.685Z,52.80
2018-02-13T10:14:04.145Z,53.00
2018-02-13T10:16:31.597Z,53.00
2018-02-13T10:18:59.069Z,52.80
2018-02-13T10:21:26.522Z,52.90
2018-02-13T10:23:53.983Z,52.80
2018-02-13T10:26:21.428Z,52.70
2018-02-13T10:28:48.885Z,52.60
2018-02-13T10:31:16.332Z,52.70
2018-02-13T10:33:43.785Z,52.80
2018-02-13T10:36:11.242Z,52.70
2018-02-13T10:38:38.716Z,52.60
2018-02-13T10:41:06.174Z,52.60
2018-02-13T10:43:33.637Z,52.60
2018-02-13T10:46:01.090Z,52.50
2018-02-13T10:48:28.549Z,52.10
2018-02-13T10:50:56.287Z,51.90
2018-02-13T10:53:23.793Z,51.90
2018-02-13T10:55:51.230Z,51.90
2018-02-13T10:58:18.894Z,52.20
2018-02-13T11:00:52.058Z,52.00
2018-02-13T11:03:19.521Z,51.70
2018-02-13T11:05:47.742Z,50.20
2018-02-13T11:08:15.194Z,50.20
2018-02-13T11:10:42.663Z,49.20
2018-02-13T11:13:10.111Z,48.50
2018-02-13T11:15:37.574Z,47.60
2018-02-13T11:18:05.017Z,46.70
2018-02-13T11:20:32.472Z,46.00
2018-02-13T11:22:59.929Z,45.20
2018-02-13T11:25:27.393Z,44.60
2018-02-13T11:27:54.849Z,44.00
2018-02-13T11:30:22.319Z,43.50
2018-02-13T11:32:49.799Z,43.00
2018-02-13T11:35:17.231Z,42.50
2018-02-13T11:37:44.685Z,41.90
2018-02-13T11:40:12.145Z,41.60
2018-02-13T11:42:39.600Z,41.40
2018-02-13T11:45:07.060Z,40.90
2018-02-13T11:47:35.458Z,40.50
2018-02-13T11:50:02.907Z,40.10
2018-02-13T11:52:30.369Z,39.60
2018-02-13T11:54:57.817Z,39.30
2018-02-13T11:57:25.275Z,39.00
2018-02-13T11:59:52.725Z,38.60
2018-02-13T12:02:20.793Z,38.50
2018-02-13T12:04:49.019Z,38.20
2018-02-13T12:07:17.247Z,38.10
2018-02-13T12:09:44.709Z,38.10
2018-02-13T12:12:12.149Z,38.00
2018-02-13T12:14:39.605Z,38.20
2018-02-13T12:17:07.079Z,38.50
2018-02-13T12:19:34.516Z,38.60
2018-02-13T12:22:02.005Z,38.80
2018-02-13T12:24:29.458Z,38.90
2018-02-13T12:26:56.904Z,38.90
2018-02-13T12:29:24.365Z,38.60
2018-02-13T12:31:52.782Z,38.50
2018-02-13T12:34:20.513Z,38.50
2018-02-13T12:36:47.972Z,38.60
2018-02-13T12:39:15.433Z,38.50
2018-02-13T12:41:42.897Z,38.40
2018-02-13T12:44:10.646Z,38.30
2018-02-13T12:46:38.979Z,38.10
2018-02-13T12:49:06.447Z,38.00
2018-02-13T12:51:33.901Z,37.80
2018-02-13T12:54:01.361Z,37.50
2018-02-13T12:56:28.837Z,37.00
2018-02-13T12:58:56.302Z,37.00
2018-02-13T13:01:23.745Z,36.90
2018-02-13T13:03:51.202Z,36.70
2018-02-13T13:06:18.663Z,36.40
2018-02-13T13:08:46.117Z,36.40
2018-02-13T13:11:13.585Z,36.30
2018-02-13T13:13:41.034Z,36.10
2018-02-13T13:16:08.490Z,35.90
2018-02-13T13:18:35.945Z,35.60
2018-02-13T13:21:03.428Z,35.50
2018-02-13T13:23:30.865Z,35.50
2018-02-13T13:25:58.329Z,35.50
2018-02-13T13:28:25.802Z,35.80
2018-02-13T13:30:53.262Z,35.90
2018-02-13T13:33:20.714Z,35.80
2018-02-13T13:35:48.464Z,36.00
2018-02-13T13:38:16.229Z,35.80
2018-02-13T13:40:43.692Z,35.70
2018-02-13T13:43:11.143Z,35.40
2018-02-13T13:45:38.597Z,35.20
2018-02-13T13:48:06.045Z,34.90
2018-02-13T13:50:33.501Z,34.80
2018-02-13T13:53:00.961Z,34.60
2018-02-13T13:55:28.429Z,34.40
2018-02-13T13:57:56.049Z,34.20
2018-02-13T14:00:23.561Z,34.10
2018-02-13T14:02:51.013Z,34.00
2018-02-13T14:05:19.327Z,33.60
2018-02-13T14:07:46.873Z,33.60
2018-02-13T14:10:15.905Z,33.60
2018-02-13T14:12:43.366Z,33.60
2018-02-13T14:15:10.830Z,33.50
2018-02-13T14:17:38.317Z,33.40
2018-02-13T14:20:05.758Z,33.40
2018-02-13T14:22:33.234Z,33.60
2018-02-13T14:25:00.831Z,33.60
2018-02-13T14:27:28.353Z,33.70
2018-02-13T14:29:55.894Z,33.80
2018-02-13T14:32:23.565Z,33.90
2018-02-13T14:34:51.027Z,34.10
2018-02-13T14:37:19.494Z,34.30
2018-02-13T14:39:46.958Z,34.30
2018-02-13T14:42:14.424Z,34.30
2018-02-13T14:44:42.781Z,34.40
2018-02-13T14:47:10.464Z,34.20
2018-02-13T14:49:37.927Z,34.20
2018-02-13T14:52:05.378Z,34.20
2018-02-13T14:54:32.821Z,34.20
2018-02-13T14:57:00.274Z,34.30
2018-02-13T14:59:27.730Z,34.30
2018-02-13T15:01:55.185Z,34.40
2018-02-13T15:04:22.647Z,34.50
2018-02-13T15:06:50.114Z,34.70
2018-02-13T15:09:17.569Z,34.60
2018-02-13T15:11:45.018Z,34.70
2018-02-13T15:14:12.493Z,34.80
2018-02-13T15:16:42.511Z,34.50
2018-02-13T15:19:10.137Z,34.50
2018-02-13T15:21:37.614Z,34.60
2018-02-13T15:24:05.070Z,34.70
2018-02-13T15:26:32.526Z,35.00
2018-02-13T15:28:59.982Z,35.00
2018-02-13T15:31:27.436Z,35.00
2018-02-13T15:33:54.913Z,35.10
2018-02-13T15:36:22.353Z,35.20
2018-02-13T15:38:49.823Z,35.50
2018-02-13T15:41:17.357Z,35.70
2018-02-13T15:43:45.118Z,35.80
2018-02-13T15:46:12.815Z,35.90
2018-02-13T15:48:40.267Z,35.90
2018-02-13T15:51:07.718Z,36.00
2018-02-13T15:53:35.187Z,36.20
2018-02-13T15:56:02.698Z,36.30
2018-02-13T15:58:30.161Z,36.30
2018-02-13T16:00:57.692Z,36.30
2018-02-13T16:03:25.298Z,36.60
2018-02-13T16:05:52.757Z,36.70
2018-02-13T16:08:20.213Z,36.60
2018-02-13T16:10:47.689Z,36.70
2018-02-13T16:13:15.213Z,36.70
2018-02-13T16:15:42.683Z,36.70
2018-02-13T16:18:10.434Z,36.80
2018-02-13T16:20:37.952Z,36.80
2018-02-13T16:23:05.499Z,37.40
2018-02-13T16:25:32.979Z,37.50
2018-02-13T16:28:00.434Z,36.90
2018-02-13T16:30:27.885Z,37.00
2018-02-13T16:32:55.335Z,37.60
2018-02-13T16:35:22.838Z,37.20
2018-02-13T16:37:50.298Z,37.40
2018-02-13T16:40:17.742Z,37.70
2018-02-13T16:42:45.197Z,37.90
2018-02-13T16:45:12.774Z,37.90
2018-02-13T16:47:40.226Z,37.90
2018-02-13T16:50:07.697Z,38.10
2018-02-13T16:52:35.226Z,38.20
2018-02-13T16:55:02.681Z,38.40
2018-02-13T16:57:30.137Z,38.40
2018-02-13T16:59:57.597Z,38.40
2018-02-13T17:02:25.059Z,38.30
2018-02-13T17:04:52.509Z,38.50
2018-02-13T17:07:19.974Z,38.50
2018-02-13T17:09:47.421Z,38.50
2018-02-13T17:12:14.886Z,38.60
2018-02-13T17:14:42.333Z,38.80
2018-02-13T17:17:09.795Z,39.00
2018-02-13T17:19:37.375Z,39.20
2018-02-13T17:22:04.789Z,39.40
2018-02-13T17:24:32.240Z,39.50
2018-02-13T17:26:59.762Z,39.60
2018-02-13T17:29:27.213Z,39.80
2018-02-13T17:31:54.670Z,40.00
2018-02-13T17:34:22.164Z,40.00
2018-02-13T17:36:49.600Z,40.10
2018-02-13T17:39:17.830Z,40.30
2018-02-13T17:41:45.288Z,40.30
2018-02-13T17:44:12.750Z,40.60
2018-02-13T17:46:40.197Z,40.70
2018-02-13T17:49:07.772Z,40.90
2018-02-13T17:51:35.180Z,41.00
2018-02-13T17:54:02.635Z,41.10
2018-02-13T17:56:30.078Z,41.30
2018-02-13T17:58:57.564Z,41.70
2018-02-13T18:01:25.006Z,42.00
2018-02-13T18:03:52.505Z,42.20
2018-02-13T18:06:19.950Z,42.30
2018-02-13T18:08:47.456Z,42.50
2018-02-13T18:11:14.909Z,42.60
2018-02-13T18:13:42.366Z,42.70
2018-02-13T18:16:09.856Z,42.80
2018-02-13T18:18:37.357Z,43.00
2018-02-13T18:21:04.814Z,43.10
2018-02-13T18:23:32.326Z,43.20
2018-02-13T18:25:59.794Z,43.40
2018-02-13T18:28:27.269Z,43.60
2018-02-13T18:30:54.729Z,44.20
2018-02-13T18:33:22.197Z,43.90
2018-02-13T18:35:49.654Z,44.00
2018-02-13T18:38:17.102Z,44.30
2018-02-13T18:40:44.557Z,44.40
2018-02-13T18:43:12.010Z,44.50
2018-02-13T18:45:39.473Z,44.70
2018-02-13T18:48:06.936Z,44.90
2018-02-13T18:50:34.385Z,45.10
2018-02-13T18:55:29.393Z,45.40
2018-02-13T18:57:56.837Z,45.40
2018-02-13T19:00:24.308Z,45.50
2018-02-13T19:02:51.768Z,45.60
2018-02-13T19:05:19.221Z,45.70
2018-02-13T19:07:46.705Z,45.90
2018-02-13T19:10:14.173Z,46.00
2018-02-13T19:12:41.634Z,46.30
2018-02-13T19:15:09.085Z,46.40
2018-02-13T19:17:36.580Z,46.60
2018-02-13T19:20:04.092Z,46.70
2018-02-13T19:22:31.553Z,46.80
2018-02-13T19:24:59.010Z,46.80
2018-02-13T19:27:26.473Z,47.10
2018-02-13T19:29:53.913Z,47.20
2018-02-13T19:32:21.383Z,47.40
2018-02-13T19:34:48.835Z,47.60
2018-02-13T19:37:16.293Z,47.70
2018-02-13T19:39:43.746Z,47.80
2018-02-13T19:42:11.219Z,47.80
2018-02-13T19:44:38.666Z,47.80
2018-02-13T19:47:06.137Z,47.90
2018-02-13T19:49:33.594Z,48.00
2018-02-13T19:52:01.058Z,48.10
2018-02-13T19:54:28.734Z,48.30
2018-02-13T19:56:56.201Z,48.40
2018-02-13T19:59:23.677Z,48.60
2018-02-13T20:01:51.137Z,48.70
2018-02-13T20:04:18.647Z,48.80
2018-02-13T20:06:46.106Z,49.00
2018-02-13T20:09:13.569Z,48.90
2018-02-13T20:11:41.022Z,49.00
2018-02-13T20:14:08.533Z,49.10
2018-02-13T20:16:35.990Z,49.20
2018-02-13T20:19:03.454Z,49.20
2018-02-13T20:21:30.924Z,49.30
2018-02-13T20:23:58.405Z,49.40
2018-02-13T20:26:26.621Z,49.60
2018-02-13T20:28:54.087Z,49.60
2018-02-13T20:31:21.545Z,49.70
2018-02-13T20:33:49.010Z,49.80
2018-02-13T20:36:16.471Z,49.90
2018-02-13T20:38:43.952Z,50.00
2018-02-13T20:41:11.422Z,50.10
2018-02-13T20:43:38.967Z,50.30
2018-02-13T20:46:07.191Z,50.60
2018-02-13T20:48:34.649Z,50.60
2018-02-13T20:51:02.105Z,50.70
2018-02-13T20:53:29.566Z,50.70
2018-02-13T20:55:57.025Z,50.90
2018-02-13T20:58:24.491Z,51.00
2018-02-13T21:00:51.941Z,51.00
2018-02-13T21:03:20.177Z,51.10
2018-02-13T21:05:47.638Z,51.20
2018-02-13T21:08:15.107Z,51.10
2018-02-13T21:10:42.569Z,51.10
2018-02-13T21:13:10.041Z,51.20
2018-02-13T21:15:37.640Z,51.40
2018-02-13T21:18:05.270Z,51.40
2018-02-13T21:20:32.721Z,51.40
2018-02-13T21:23:00.304Z,51.50
2018-02-13T21:25:27.777Z,51.60
2018-02-13T21:27:55.234Z,51.60
2018-02-13T21:30:22.691Z,51.80
2018-02-13T21:32:50.149Z,52.00
2018-02-13T21:35:17.818Z,52.10
2018-02-13T21:37:45.276Z,52.20
2018-02-13T21:40:12.742Z,52.10
2018-02-13T21:42:40.262Z,52.20
2018-02-13T21:45:07.733Z,52.40
2018-02-13T21:47:35.658Z,52.50
2018-02-13T21:50:03.130Z,52.50
2018-02-13T21:52:30.680Z,52.50
2018-02-13T21:54:58.472Z,52.60
2018-02-13T21:57:26.010Z,52.70
2018-02-13T21:59:53.494Z,52.90
2018-02-13T22:02:20.946Z,53.00
2018-02-13T22:04:48.465Z,53.00
2018-02-13T22:07:16.290Z,52.90
2018-02-13T22:09:43.748Z,52.70
2018-02-13T22:12:11.203Z,52.80
2018-02-13T22:14:38.661Z,52.90
2018-02-13T22:17:06.155Z,53.20
2018-02-13T22:19:33.649Z,53.30
2018-02-13T22:22:01.109Z,53.40
2018-02-13T22:24:28.565Z,53.40
2018-02-13T22:26:56.034Z,53.50
2018-02-13T22:29:23.506Z,53.60
2018-02-13T22:31:51.132Z,53.50
2018-02-13T22:34:18.606Z,53.40
2018-02-13T22:36:46.162Z,53.60
2018-02-13T22:39:13.642Z,53.60
2018-02-13T22:41:41.202Z,53.50
2018-02-13T22:44:09.430Z,53.40
2018-02-13T22:46:36.945Z,53.40
2018-02-13T22:49:04.417Z,53.40
2018-02-13T22:51:31.930Z,53.50
2018-02-13T22:53:59.409Z,53.60
2018-02-13T22:56:27.634Z,53.80
2018-02-13T22:58:55.963Z,53.80
2018-02-13T23:01:23.415Z,53.90
2018-02-13T23:03:50.908Z,54.10
2018-02-13T23:06:18.370Z,54.00
2018-02-13T23:08:45.845Z,54.00
2018-02-13T23:11:13.298Z,54.10
2018-02-13T23:13:40.772Z,53.90
2018-02-13T23:16:08.582Z,54.10
2018-02-13T23:18:36.233Z,54.10
2018-02-13T23:21:03.793Z,54.20
2018-02-13T23:23:31.513Z,54.30
2018-02-13T23:25:59.280Z,54.50
2018-02-13T23:28:27.050Z,54.40
2018-02-13T23:30:54.816Z,54.20
2018-02-13T23:33:22.277Z,54.10
2018-02-13T23:35:49.733Z,54.00
2018-02-13T23:38:17.222Z,54.10
2018-02-13T23:40:44.679Z,54.30
2018-02-13T23:43:12.142Z,54.20
2018-02-13T23:45:39.695Z,54.10
2018-02-13T23:48:07.325Z,54.00
2018-02-13T23:50:35.075Z,54.20
2018-02-13T23:53:02.898Z,54.20
2018-02-13T23:55:30.597Z,54.40
2018-02-13T23:57:58.166Z,54.40
